WetterOnline ( https://www.wetteronline.de )

Wetter aktuell Neu Viecheln

Aktuelles Wetter: Schwerin (68m)

6-stündlich | Neueste Meldungen
Ortszeit Temperatur Wetter
Mi, 21.10. 20:00 14.0° C bedeckt
Mi, 21.10. 14:00 12.6° C leichter Regen
Mi, 21.10. 8:00 11.6° C Sprühregen
Mi, 21.10. 2:00 11.1° C Sprühregen
Di, 20.10. 20:00 9.4° C Sprühregen
Di, 20.10. 14:00 10.2° C bedeckt
Di, 20.10. 8:00 6.3° C bewölkt
Di, 20.10. 2:00 7.2° C wolkig
Ortszeit Temperatur Wetter
Do, 22.10. 1:30 14.4° C leicht bewölkt
Do, 22.10. 1:20 14.4° C leicht bewölkt
Do, 22.10. 1:10 14.5° C wolkig
Do, 22.10. 1:00 14.5° C bewölkt
Do, 22.10. 0:50 14.5° C bewölkt
Do, 22.10. 0:40 14.6° C bedeckt
Do, 22.10. 0:30 14.6° C bedeckt
Do, 22.10. 0:00 14.8° C leicht bewölkt
Mi, 21.10. 23:30 14.7° C wolkenlos
Mi, 21.10. 23:00 14.7° C wolkenlos
Mi, 21.10. 22:30 14.8° C fast wolkenlos
Ortszeit Relative Feuchte Sichtweite
Mi, 21.10. 20:00 76% 50 km
Mi, 21.10. 14:00 89% 18 km
Mi, 21.10. 8:00 97% 10 km
Mi, 21.10. 2:00 98% 5.0 km
Di, 20.10. 20:00 94% 12 km
Di, 20.10. 14:00 69% 35 km
Di, 20.10. 8:00 79% 28 km
Di, 20.10. 2:00 93% 12 km
Ortszeit Relative Feuchte Sichtweite
Do, 22.10. 1:30 73% 50 km
Do, 22.10. 1:20 73% -
Do, 22.10. 1:10 72% -
Do, 22.10. 1:00 71% 50 km
Do, 22.10. 0:50 71% -
Do, 22.10. 0:40 70% -
Do, 22.10. 0:30 70% 50 km
Do, 22.10. 0:00 69% 50 km
Mi, 21.10. 23:30 68% 55 km
Mi, 21.10. 23:00 68% 45 km
Mi, 21.10. 22:30 67% 45 km
Ortszeit Niederschlagsmenge Niederschlagsart
Mi, 21.10. 20:00 0.8 l/m2 in 12 Std. Regen
Mi, 21.10. 14:00 0.6 l/m2 in 6 Std. Regen
Mi, 21.10. 8:00 1 l/m2 in 12 Std. Regen
Mi, 21.10. 2:00 1 l/m2 in 6 Std. Regen
Di, 20.10. 20:00 0.9 l/m2 in 12 Std. Regen
Di, 20.10. 14:00 0.0 l/m2 in 6 Std. -
Di, 20.10. 8:00 0.0 l/m2 in 12 Std. -
Di, 20.10. 2:00 0.0 l/m2 in 6 Std. -
Ortszeit Niederschlagsmenge Niederschlagsart
Do, 22.10. 1:30 0.0 l/m2 in 1 Std. -
Do, 22.10. 1:20 keine Meldung -
Do, 22.10. 1:10 keine Meldung -
Do, 22.10. 1:00 0.0 l/m2 in 1 Std. -
Do, 22.10. 0:50 keine Meldung -
Do, 22.10. 0:40 keine Meldung -
Do, 22.10. 0:30 0.0 l/m2 in 1 Std. -
Do, 22.10. 0:00 0.0 l/m2 in 1 Std. -
Mi, 21.10. 23:30 0.0 l/m2 in 1 Std. -
Mi, 21.10. 23:00 0.0 l/m2 in 1 Std. -
Mi, 21.10. 22:30 0.0 l/m2 in 1 Std. -
Ortszeit Stärke Spitze Richtung
km/h Bft. km/h Grad Sektor
Mi, 21.10. 20:00 13 3 33 190° S
Mi, 21.10. 14:00 11 2 25 180° S
Mi, 21.10. 8:00 9 2 26 190° S
Mi, 21.10. 2:00 13 3 28 200° S
Di, 20.10. 20:00 13 3 30 200° S
Di, 20.10. 14:00 11 2 36 170° S
Di, 20.10. 8:00 9 2 26 140° SO
Di, 20.10. 2:00 7 2 18 150° SO
Ortszeit Stärke Spitze Richtung
km/h Bft. km/h Grad Sektor
Do, 22.10. 1:30 22 4 36 210° SW
Do, 22.10. 1:20 22 4 - 210° SW
Do, 22.10. 1:10 22 4 - 210° SW
Do, 22.10. 1:00 22 4 47 210° SW
Do, 22.10. 0:50 22 4 - 210° SW
Do, 22.10. 0:40 25 4 - 210° SW
Do, 22.10. 0:30 24 4 44 210° SW
Do, 22.10. 0:00 25 4 43 210° SW
Mi, 21.10. 23:30 24 4 43 200° S
Mi, 21.10. 23:00 24 4 46 200° S
Mi, 21.10. 22:30 25 4 43 200° S
Ortszeit Untergrenze Bedeckung Gattung
total tief tief mittel hoch
Mi, 21.10. 20:00 1800 m 8/8 8/8 - - -
Mi, 21.10. 14:00 930 m 8/8 8/8 - - -
Mi, 21.10. 8:00 240 m 7/8 7/8 - - -
Mi, 21.10. 2:00 150 m 7/8 7/8 - - -
Di, 20.10. 20:00 2100 m 8/8 8/8 - - -
Di, 20.10. 14:00 4800 m 8/8 8/8 - - -
Di, 20.10. 8:00 4200 m 7/8 7/8 - - -
Di, 20.10. 2:00 1500 m 8/8 3/8 - - -
Ortszeit Bedeckungsgrad in Achtel und Wolkenuntergrenze
Do, 22.10. 1:30 3(2100m)
Do, 22.10. 1:20 3(2100m)
Do, 22.10. 1:10 6(2100m)
Do, 22.10. 1:00 7(1800m)
Do, 22.10. 0:50 7(1800m)
Do, 22.10. 0:40 8(1800m)
Do, 22.10. 0:30 8(1800m)
Do, 22.10. 0:00 4(2100m)
Mi, 21.10. 23:30 keine Wolken
Mi, 21.10. 23:00 keine Wolken
Mi, 21.10. 22:30 1(2100m)
Ortszeit Luftdruck NN (hPa) Tendenz (hPa in 3 Std.)
Mi, 21.10. 20:00 1003 - 1,1
Mi, 21.10. 14:00 1006 - 1,6
Mi, 21.10. 8:00 1007 - 0,7
Mi, 21.10. 2:00 1009 - 0,4
Di, 20.10. 20:00 1010 - 0,2
Di, 20.10. 14:00 1011 - 1,8
Di, 20.10. 8:00 1016 - 1,7
Di, 20.10. 2:00 1019 - 1,3
Ortszeit Luftdruck NN (hPa) Tendenz (hPa in 3 Std.)
Do, 22.10. 1:30 1002 + 0,3
Do, 22.10. 1:20 1002 keine Meldung
Do, 22.10. 1:10 1002 keine Meldung
Do, 22.10. 1:00 1002 + 0,4
Do, 22.10. 0:50 1002 keine Meldung
Do, 22.10. 0:40 1002 keine Meldung
Do, 22.10. 0:30 1002 + 0,3
Do, 22.10. 0:00 1002 + 0,1
Mi, 21.10. 23:30 1002 - 0,2
Mi, 21.10. 23:00 1002 - 0,4
Mi, 21.10. 22:30 1002 - 0,7
Ortszeit Schneehöhe (cm)
Mi, 21.10. 20:00 0
Mi, 21.10. 14:00 0
Mi, 21.10. 8:00 0
Mi, 21.10. 2:00 0
Di, 20.10. 20:00 0
Di, 20.10. 14:00 0
Di, 20.10. 8:00 0
Di, 20.10. 2:00 0
Ortszeit Schneehöhe (cm)
Do, 22.10. 1:30 0
Do, 22.10. 1:20 0
Do, 22.10. 1:10 0
Do, 22.10. 1:00 0
Do, 22.10. 0:50 0
Do, 22.10. 0:40 0
Do, 22.10. 0:30 0
Do, 22.10. 0:00 0
Mi, 21.10. 23:30 0
Mi, 21.10. 23:00 0
Mi, 21.10. 22:30 0
Link zu dieser Seite / Seite empfehlen

Das Wetter in ...